createdAt,value
2018-05-29T00:00:34.310Z,22.45
2018-05-29T00:03:34.410Z,22.47
2018-05-29T00:04:34.421Z,22.39
2018-05-29T00:05:34.470Z,22.33
2018-05-29T00:06:49.117Z,22.4
2018-05-29T00:07:34.515Z,22.36
2018-05-29T00:08:34.510Z,22.37
2018-05-29T00:09:34.563Z,22.54
2018-05-29T00:10:34.567Z,22.4
2018-05-29T00:11:34.618Z,22.39
2018-05-29T00:12:34.615Z,22.46
2018-05-29T00:13:34.669Z,22.46
2018-05-29T00:14:34.683Z,22.4
2018-05-29T00:15:34.727Z,22.39
2018-05-29T00:16:34.716Z,22.37
2018-05-29T00:17:34.746Z,22.3
2018-05-29T00:18:34.517Z,22.28
2018-05-29T00:20:34.324Z,22.27
2018-05-29T00:21:49.507Z,22.18
2018-05-29T00:22:34.642Z,22.24
2018-05-29T00:23:34.637Z,22.28
2018-05-29T00:24:34.686Z,22.22
2018-05-29T00:25:34.690Z,22.18
2018-05-29T00:27:35.031Z,22.12
2018-05-29T00:28:34.772Z,22.14
2018-05-29T00:29:34.815Z,22.14
2018-05-29T00:30:34.819Z,22.07
2018-05-29T00:31:34.870Z,22.15
2018-05-29T00:32:35.129Z,22.12
2018-05-29T00:33:34.917Z,22.06
2018-05-29T00:34:35.239Z,22.14
2018-05-29T00:35:34.944Z,22
2018-05-29T00:36:35.000Z,21.99
2018-05-29T00:37:35.286Z,21.98
2018-05-29T00:38:35.290Z,21.91
2018-05-29T00:39:35.321Z,21.91
2018-05-29T00:40:35.332Z,21.88
2018-05-29T00:42:35.385Z,21.79
2018-05-29T00:43:35.440Z,21.82
2018-05-29T00:44:35.465Z,21.86
2018-05-29T00:45:50.125Z,21.83
2018-05-29T00:46:50.162Z,21.82
2018-05-29T00:47:35.532Z,21.79
2018-05-29T00:48:35.535Z,21.75
2018-05-29T00:49:35.592Z,21.71
2018-05-29T00:50:35.595Z,21.68
2018-05-29T00:51:35.632Z,21.69
2018-05-29T00:52:35.642Z,21.69
2018-05-29T00:53:50.345Z,21.54
2018-05-29T00:54:35.730Z,21.61
2018-05-29T00:55:35.713Z,21.53
2018-05-29T00:57:35.766Z,21.52
2018-05-29T00:58:35.551Z,21.46
2018-05-29T00:59:35.559Z,21.5
2018-05-29T01:00:35.885Z,21.52
2018-05-29T01:01:35.878Z,21.52
2018-05-29T01:02:35.908Z,21.53
2018-05-29T01:03:50.599Z,21.49
2018-05-29T01:04:35.449Z,21.54
2018-05-29T01:05:35.709Z,21.43
2018-05-29T01:06:35.496Z,21.42
2018-05-29T01:07:35.801Z,21.35
2018-05-29T01:08:36.079Z,21.43
2018-05-29T01:09:50.733Z,21.34
2018-05-29T01:10:36.128Z,21.34
2018-05-29T01:11:36.159Z,21.38
2018-05-29T01:12:35.956Z,21.37
2018-05-29T01:13:36.187Z,21.31
2018-05-29T01:14:35.941Z,21.28
2018-05-29T01:16:36.249Z,21.27
2018-05-29T01:17:36.308Z,21.28
2018-05-29T01:18:36.330Z,21.25
2018-05-29T01:19:36.071Z,21.27
2018-05-29T01:20:51.030Z,21.25
2018-05-29T01:21:36.376Z,21.25
2018-05-29T01:22:36.407Z,21.24
2018-05-29T01:23:36.176Z,21.22
2018-05-29T01:24:36.483Z,21.19
2018-05-29T01:25:51.157Z,21.21
2018-05-29T01:27:36.560Z,21.21
2018-05-29T01:28:36.298Z,21.17
2018-05-29T01:29:36.613Z,21.09
2018-05-29T01:30:36.621Z,21.07
2018-05-29T01:31:36.630Z,21.06
2018-05-29T01:32:51.317Z,20.99
2018-05-29T01:33:36.185Z,20.97
2018-05-29T01:34:36.449Z,20.91
2018-05-29T01:35:36.762Z,20.94
2018-05-29T01:36:36.780Z,20.95
2018-05-29T01:37:36.525Z,20.92
2018-05-29T01:38:36.834Z,20.88
2018-05-29T01:39:36.836Z,20.84
2018-05-29T01:40:36.880Z,20.79
2018-05-29T01:42:36.931Z,20.95
2018-05-29T01:43:36.964Z,20.88
2018-05-29T01:44:36.958Z,20.92
2018-05-29T01:45:37.010Z,20.88
2018-05-29T01:46:37.014Z,20.85
2018-05-29T01:47:37.065Z,20.8
2018-05-29T01:48:37.064Z,20.84
2018-05-29T01:49:36.852Z,20.85
2018-05-29T01:50:37.124Z,20.72
2018-05-29T01:51:37.170Z,20.74
2018-05-29T01:52:37.160Z,20.67
2018-05-29T01:53:37.034Z,20.72
2018-05-29T01:54:37.224Z,20.7
2018-05-29T01:56:51.925Z,20.67
2018-05-29T01:57:37.318Z,20.74
2018-05-29T01:58:37.312Z,20.62
2018-05-29T01:59:37.369Z,20.64
2018-05-29T02:00:37.388Z,20.66
2018-05-29T02:01:37.418Z,20.69
2018-05-29T02:02:52.122Z,20.62
2018-05-29T02:03:37.437Z,20.61
2018-05-29T02:05:37.489Z,20.66
2018-05-29T02:06:37.547Z,20.52
2018-05-29T02:07:37.289Z,20.48
2018-05-29T02:08:37.582Z,20.41
2018-05-29T02:09:37.600Z,20.48
2018-05-29T02:10:37.616Z,20.43
2018-05-29T02:11:37.407Z,20.41
2018-05-29T02:12:37.402Z,20.38
2018-05-29T02:13:52.102Z,20.39
2018-05-29T02:14:37.744Z,20.31
2018-05-29T02:15:37.742Z,20.24
2018-05-29T02:16:37.873Z,20.31
2018-05-29T02:17:37.790Z,20.26
2018-05-29T02:18:37.582Z,20.31
2018-05-29T02:19:37.841Z,20.26
2018-05-29T02:20:37.893Z,20.21
2018-05-29T02:21:37.889Z,20.32
2018-05-29T02:22:37.941Z,20.32
2018-05-29T02:23:37.682Z,20.28
2018-05-29T02:24:37.976Z,20.28
2018-05-29T02:25:38.018Z,20.2
2018-05-29T02:26:38.015Z,20.23
2018-05-29T02:27:38.050Z,20.21
2018-05-29T02:28:52.733Z,20.21
2018-05-29T02:29:38.104Z,20.16
2018-05-29T02:31:38.166Z,20.23
2018-05-29T02:32:38.200Z,20.21
2018-05-29T02:33:38.192Z,20.17
2018-05-29T02:34:52.875Z,20.23
2018-05-29T02:36:38.266Z,20.13
2018-05-29T02:37:38.304Z,20.11
2018-05-29T02:38:38.342Z,20.13
2018-05-29T02:39:38.338Z,20.08
2018-05-29T02:40:38.396Z,20.13
2018-05-29T02:41:38.402Z,20.02
2018-05-29T02:42:38.443Z,20.06
2018-05-29T02:43:38.229Z,19.99
2018-05-29T02:44:53.123Z,20.05
2018-05-29T02:45:38.515Z,20.03
2018-05-29T02:46:38.535Z,19.98
2018-05-29T02:47:38.568Z,20.02
2018-05-29T02:48:38.310Z,19.98
2018-05-29T02:49:38.625Z,20.02
2018-05-29T02:50:38.373Z,20.08
2018-05-29T02:51:38.375Z,20.03
2018-05-29T02:52:38.689Z,19.94
2018-05-29T02:53:38.425Z,20.02
2018-05-29T02:54:38.724Z,20.02
2018-05-29T02:55:38.738Z,19.96
2018-05-29T02:56:38.799Z,19.98
2018-05-29T02:57:38.813Z,20.08
2018-05-29T02:58:38.826Z,20.01
2018-05-29T02:59:38.577Z,20.01
2018-05-29T03:00:53.519Z,19.88
2018-05-29T03:01:38.913Z,19.94
2018-05-29T03:02:38.907Z,19.95
2018-05-29T03:03:38.972Z,19.87
2018-05-29T03:04:38.974Z,19.91
2018-05-29T03:05:38.757Z,19.84
2018-05-29T03:06:39.007Z,19.95
2018-05-29T03:07:39.037Z,19.98
2018-05-29T03:08:39.072Z,19.92
2018-05-29T03:09:39.115Z,19.91
2018-05-29T03:10:39.237Z,19.95
2018-05-29T03:11:39.134Z,19.88
2018-05-29T03:12:39.184Z,19.88
2018-05-29T03:13:39.184Z,19.86
2018-05-29T03:14:38.974Z,19.91
2018-05-29T03:15:39.233Z,19.96
2018-05-29T03:16:53.935Z,19.99
2018-05-29T03:17:39.290Z,20.01
2018-05-29T03:18:39.347Z,19.98
2018-05-29T03:20:39.393Z,19.96
2018-05-29T03:21:39.380Z,20.01
2018-05-29T03:22:39.180Z,19.94
2018-05-29T03:23:39.434Z,19.95
2018-05-29T03:24:39.475Z,19.94
2018-05-29T03:25:39.480Z,19.95
2018-05-29T03:26:39.353Z,19.91
2018-05-29T03:27:54.207Z,19.95
2018-05-29T03:28:39.298Z,19.95
2018-05-29T03:29:39.591Z,20.01
2018-05-29T03:30:39.608Z,20.01
2018-05-29T03:31:54.308Z,19.96
2018-05-29T03:33:39.713Z,19.99
2018-05-29T03:34:39.730Z,20.05
2018-05-29T03:35:39.748Z,20.05
2018-05-29T03:36:39.767Z,20.1
2018-05-29T03:37:54.439Z,20.02
2018-05-29T03:38:39.820Z,20.11
2018-05-29T03:39:39.845Z,20.1
2018-05-29T03:40:39.895Z,20.06
2018-05-29T03:41:39.908Z,20.08
2018-05-29T03:42:39.909Z,20.24
2018-05-29T03:43:39.943Z,20.2
2018-05-29T03:44:39.986Z,20.24
2018-05-29T03:45:39.977Z,20.21
2018-05-29T03:46:40.035Z,20.21
2018-05-29T03:47:40.030Z,20.2
2018-05-29T03:48:39.809Z,20.26
2018-05-29T03:49:40.079Z,20.33
2018-05-29T03:50:39.868Z,20.29
2018-05-29T03:51:40.159Z,20.29
2018-05-29T03:52:40.159Z,20.33
2018-05-29T03:53:40.186Z,20.35
2018-05-29T03:54:39.939Z,20.24
2018-05-29T03:55:40.267Z,20.26
2018-05-29T03:56:40.248Z,20.28
2018-05-29T03:57:40.308Z,20.39
2018-05-29T03:58:40.327Z,20.42
2018-05-29T03:59:40.334Z,20.54
2018-05-29T04:01:40.385Z,20.38
2018-05-29T04:02:40.434Z,20.55
2018-05-29T04:03:55.083Z,20.55
2018-05-29T04:04:40.497Z,20.59
2018-05-29T04:05:40.238Z,20.59
2018-05-29T04:07:40.541Z,20.67
2018-05-29T04:08:40.550Z,20.8
2018-05-29T04:10:40.605Z,21.61
2018-05-29T04:11:40.124Z,22.14
2018-05-29T04:13:40.691Z,22.68
2018-05-29T04:14:40.466Z,22.8
2018-05-29T04:15:40.763Z,22.65
2018-05-29T04:16:40.497Z,22.54
2018-05-29T04:17:40.526Z,22.31
2018-05-29T04:18:40.813Z,22.12
2018-05-29T04:19:55.510Z,21.83
2018-05-29T04:20:40.594Z,21.69
2018-05-29T04:21:40.652Z,21.67
2018-05-29T04:22:40.657Z,21.61
2018-05-29T04:23:55.617Z,21.56
2018-05-29T04:24:40.707Z,21.58
2018-05-29T04:27:41.070Z,21.61
2018-05-29T04:28:40.804Z,21.59
2018-05-29T04:29:40.828Z,21.69
2018-05-29T04:30:41.148Z,22
2018-05-29T04:31:41.166Z,22.25
2018-05-29T04:32:41.198Z,22.6
2018-05-29T04:33:40.933Z,23.02
2018-05-29T04:34:40.988Z,23.57
2018-05-29T04:35:55.900Z,24.2
2018-05-29T04:36:40.759Z,24.58
2018-05-29T04:37:41.313Z,25.24
2018-05-29T04:38:41.346Z,25.57
2018-05-29T04:39:41.351Z,25.99
2018-05-29T04:40:41.191Z,26.48
2018-05-29T04:41:41.413Z,26.58
2018-05-29T04:42:41.200Z,26.91
2018-05-29T04:43:41.295Z,27.5
2018-05-29T04:44:41.258Z,27.69
2018-05-29T04:45:41.519Z,27.82
2018-05-29T04:46:55.949Z,28.22
2018-05-29T04:47:56.254Z,28.31
2018-05-29T04:48:41.611Z,28.43
2018-05-29T04:49:41.785Z,28.54
2018-05-29T04:50:41.665Z,28.85
2018-05-29T04:51:56.377Z,29.26
2018-05-29T04:53:41.758Z,29.87
2018-05-29T04:54:41.823Z,29.85
2018-05-29T04:55:41.850Z,30.07
2018-05-29T04:56:41.952Z,30.88
2018-05-29T04:57:41.628Z,31.23
2018-05-29T04:58:41.683Z,31.29
2018-05-29T04:59:41.688Z,31.26
2018-05-29T05:00:41.998Z,31.16
2018-05-29T05:01:42.011Z,31.51
2018-05-29T05:02:42.208Z,31.85
2018-05-29T05:04:41.863Z,32.43
2018-05-29T05:05:41.902Z,32.67
2018-05-29T05:06:56.858Z,32.81
2018-05-29T05:07:41.998Z,33.11
2018-05-29T05:09:42.279Z,32.77
2018-05-29T05:10:42.327Z,32.78
2018-05-29T05:11:42.098Z,32.89
2018-05-29T05:12:42.152Z,32.84
2018-05-29T05:13:42.452Z,32.84
2018-05-29T05:14:42.453Z,32.96
2018-05-29T05:15:42.502Z,32.96
2018-05-29T05:16:42.517Z,33.16
2018-05-29T05:17:42.583Z,33.59
2018-05-29T05:18:42.331Z,33.97
2018-05-29T05:19:42.387Z,34.02
2018-05-29T05:21:42.723Z,34.13
2018-05-29T05:22:42.736Z,34.34
2018-05-29T05:23:42.861Z,34.19
2018-05-29T05:24:57.211Z,33.94
2018-05-29T05:25:42.589Z,33.88
2018-05-29T05:26:42.896Z,33.78
2018-05-29T05:27:42.902Z,33.04
2018-05-29T05:29:57.675Z,33.84
2018-05-29T05:30:43.009Z,33.91
2018-05-29T05:32:57.488Z,34.8
2018-05-29T05:33:43.137Z,34.61
2018-05-29T05:34:43.182Z,34.92
2018-05-29T05:35:42.926Z,35.53
2018-05-29T05:36:43.261Z,35.77
2018-05-29T05:37:43.275Z,35.58
2018-05-29T05:38:57.975Z,35.15
2018-05-29T05:39:43.072Z,35.22
2018-05-29T05:40:43.148Z,35.62
2018-05-29T05:41:43.428Z,35.66
2018-05-29T05:42:43.457Z,35.82
2018-05-29T05:43:43.511Z,36.16
2018-05-29T05:44:43.254Z,36.47
2018-05-29T05:45:43.578Z,37.17
2018-05-29T05:46:43.329Z,37.17
2018-05-29T05:47:43.642Z,37.32
2018-05-29T05:48:43.655Z,37.88
2018-05-29T05:49:43.732Z,38.42
2018-05-29T05:50:43.764Z,38.12
2018-05-29T05:51:43.789Z,38.5
2018-05-29T05:52:43.909Z,38.38
2018-05-29T05:53:43.327Z,37.91
2018-05-29T05:54:58.302Z,37.88
2018-05-29T05:55:43.920Z,38.07
2018-05-29T05:56:44.043Z,38.49
2018-05-29T05:57:44.024Z,38.07
2018-05-29T05:58:44.050Z,37.69
2018-05-29T05:59:43.814Z,37.59
2018-05-29T06:00:43.878Z,37.51
2018-05-29T06:01:44.153Z,37.6
2018-05-29T06:02:43.952Z,37.66
2018-05-29T06:03:58.888Z,37.43
2018-05-29T06:04:44.283Z,37.63
2018-05-29T06:05:44.306Z,37.86
2018-05-29T06:06:44.115Z,38.13
2018-05-29T06:07:44.157Z,37.15
2018-05-29T06:08:44.423Z,36.94
2018-05-29T06:09:44.209Z,37.18
2018-05-29T06:10:59.163Z,37.4
2018-05-29T06:11:44.553Z,37.62
2018-05-29T06:12:44.589Z,38.06
2018-05-29T06:15:44.692Z,38.26
2018-05-29T06:16:44.758Z,38.42
2018-05-29T06:17:44.511Z,38.35
2018-05-29T06:18:44.828Z,38.79
2018-05-29T06:20:44.920Z,39.4
2018-05-29T06:21:44.700Z,39.07
2018-05-29T06:22:44.706Z,38.66
2018-05-29T06:23:45.039Z,38.54
2018-05-29T06:24:45.042Z,38.16
2018-05-29T06:25:45.152Z,37.63
2018-05-29T06:26:59.801Z,38.01
2018-05-29T06:27:45.181Z,37.86
2018-05-29T06:28:44.690Z,37.97
2018-05-29T06:29:45.277Z,37.64
2018-05-29T06:30:45.284Z,37.96
2018-05-29T06:31:45.359Z,38.47
2018-05-29T06:32:45.444Z,38.59
2018-05-29T06:35:00.105Z,38.37
2018-05-29T06:35:45.223Z,38.79
2018-05-29T06:36:45.561Z,38.83
2018-05-29T06:37:45.579Z,38.88
2018-05-29T06:38:45.732Z,38.75
2018-05-29T06:39:45.392Z,38.78
2018-05-29T06:40:45.480Z,38.76
2018-05-29T06:42:00.128Z,39.22
2018-05-29T06:42:45.784Z,39.54
2018-05-29T06:43:45.813Z,39.06
2018-05-29T06:44:45.857Z,39.91
2018-05-29T06:45:45.909Z,40.29
2018-05-29T06:47:00.587Z,40.26
2018-05-29T06:49:46.083Z,40.08
2018-05-29T06:50:45.852Z,40
2018-05-29T06:51:46.139Z,39.62
2018-05-29T06:53:00.843Z,38.95
2018-05-29T06:53:46.204Z,38.9
2018-05-29T06:54:46.272Z,38.6
2018-05-29T06:55:46.042Z,38.72
2018-05-29T06:57:46.506Z,38.69
2018-05-29T06:58:46.415Z,38.68
2018-05-29T07:00:46.250Z,39.62
2018-05-29T07:01:46.265Z,39.7
2018-05-29T07:02:46.595Z,39.97
2018-05-29T07:03:46.629Z,40.22
2018-05-29T07:04:46.407Z,39.96
2018-05-29T07:06:01.348Z,39.52
2018-05-29T07:06:46.464Z,39.07
2018-05-29T07:07:46.532Z,39.22
2018-05-29T07:08:46.815Z,39.81
2018-05-29T07:09:46.874Z,40.27
2018-05-29T07:10:46.897Z,40.25
2018-05-29T07:11:46.960Z,39.98
2018-05-29T07:12:46.964Z,39.78
2018-05-29T07:14:01.670Z,40.01
2018-05-29T07:14:47.085Z,39.79
2018-05-29T07:15:46.833Z,39.13
2018-05-29T07:16:47.157Z,39.41
2018-05-29T07:18:47.243Z,39.22
2018-05-29T07:19:47.250Z,38.69
2018-05-29T07:20:47.035Z,38.25
2018-05-29T07:21:47.338Z,37.75
2018-05-29T07:22:47.399Z,37.86
2018-05-29T07:23:47.454Z,37.85
2018-05-29T07:24:47.360Z,37.6
2018-05-29T07:25:47.508Z,38.03
2018-05-29T07:26:47.559Z,38.2
2018-05-29T07:27:47.574Z,38.4
2018-05-29T07:28:47.631Z,37.85
2018-05-29T07:30:02.309Z,38.57
2018-05-29T07:30:47.713Z,38.69
2018-05-29T07:31:47.743Z,37.94
2018-05-29T07:33:02.438Z,37.79
2018-05-29T07:33:47.572Z,37.74
2018-05-29T07:34:47.887Z,37.79
2018-05-29T07:35:47.652Z,37.5
2018-05-29T07:37:02.587Z,37.49
2018-05-29T07:37:47.969Z,37.74
2018-05-29T07:38:47.805Z,37.85
2018-05-29T07:39:47.877Z,38.15
2018-05-29T07:40:47.854Z,38.38
2018-05-29T07:41:48.135Z,38.5
2018-05-29T07:42:47.917Z,38.15
2018-05-29T07:43:48.198Z,37.96
2018-05-29T07:44:48.269Z,37.32
2018-05-29T07:46:02.685Z,37.6
2018-05-29T07:46:48.356Z,37.6
2018-05-29T07:47:48.374Z,37.22
2018-05-29T07:48:48.156Z,37.25
2018-05-29T07:49:48.436Z,37.18
2018-05-29T07:50:48.521Z,37.32
2018-05-29T07:51:48.000Z,37.66
2018-05-29T07:53:03.233Z,37.78
2018-05-29T07:53:48.334Z,38.04
2018-05-29T07:54:48.411Z,38.31
2018-05-29T07:56:03.074Z,37.82
2018-05-29T07:56:48.740Z,37.7
2018-05-29T07:57:48.780Z,38.23
2018-05-29T07:58:48.953Z,37.88
2018-05-29T07:59:48.834Z,37.34
2018-05-29T08:00:48.861Z,36.94
2018-05-29T08:02:03.598Z,36.6
2018-05-29T08:02:48.986Z,36.81
2018-05-29T08:03:48.997Z,36.83
2018-05-29T08:05:49.075Z,37.2
2018-05-29T08:07:03.783Z,37.72
2018-05-29T08:07:49.167Z,37.46
2018-05-29T08:08:49.175Z,36.93
2018-05-29T08:09:49.245Z,37.57
2018-05-29T08:10:49.254Z,38.01
2018-05-29T08:11:48.794Z,37.85
2018-05-29T08:12:49.077Z,37.88
2018-05-29T08:13:49.400Z,37.43
2018-05-29T08:14:49.473Z,37.15
2018-05-29T08:15:49.476Z,36.94
2018-05-29T08:17:03.887Z,36.88
2018-05-29T08:17:49.599Z,36.81
2018-05-29T08:18:49.627Z,36.59
2018-05-29T08:20:49.635Z,36.43
2018-05-29T08:21:49.693Z,36.88
2018-05-29T08:23:04.376Z,37.12
2018-05-29T08:23:49.785Z,37.18
2018-05-29T08:24:49.572Z,37.75
2018-05-29T08:25:49.840Z,38.09
2018-05-29T08:27:49.907Z,37.46
2018-05-29T08:28:49.710Z,37.15
2018-05-29T08:29:49.983Z,37.02
2018-05-29T08:30:50.052Z,37.03
2018-05-29T08:31:50.069Z,37.18
2018-05-29T08:33:04.785Z,36.94
2018-05-29T08:33:50.129Z,36.59
2018-05-29T08:34:50.171Z,36.83
2018-05-29T08:35:50.235Z,37.41
2018-05-29T08:36:50.243Z,37.62
2018-05-29T08:37:50.049Z,37.64
2018-05-29T08:38:50.074Z,37.46
2018-05-29T08:40:05.155Z,37.41
2018-05-29T08:40:50.149Z,37.5
2018-05-29T08:41:50.433Z,37.56
2018-05-29T08:43:05.151Z,37.56
2018-05-29T08:43:50.513Z,37.56
2018-05-29T08:44:51.216Z,37.62
2018-05-29T08:45:50.597Z,37.46
2018-05-29T08:46:50.632Z,37.17
2018-05-29T08:47:50.424Z,37.5
2018-05-29T08:49:05.374Z,37.91
2018-05-29T08:49:50.731Z,37.55
2018-05-29T08:50:50.795Z,37
2018-05-29T08:51:50.804Z,37.32
2018-05-29T08:52:50.601Z,37.34
2018-05-29T08:53:50.623Z,37.51
2018-05-29T08:54:50.954Z,37.67
2018-05-29T08:55:50.717Z,37.63
2018-05-29T08:57:05.787Z,37.82
2018-05-29T08:57:50.795Z,37.86
2018-05-29T08:59:50.861Z,37.7
2018-05-29T09:00:51.143Z,37.72
2018-05-29T09:01:51.213Z,37.55
2018-05-29T09:02:51.256Z,37.96
2018-05-29T09:03:51.271Z,38.22
2018-05-29T09:05:05.700Z,38.52
2018-05-29T09:05:51.333Z,38.81
2018-05-29T09:06:51.399Z,38.26
2018-05-29T09:07:51.402Z,37.84
2018-05-29T09:08:51.464Z,37.75
2018-05-29T09:09:51.470Z,37.84
2018-05-29T09:10:51.545Z,37.67
2018-05-29T09:11:51.682Z,37.84
2018-05-29T09:12:51.337Z,37.66
2018-05-29T09:13:51.389Z,37.5
2018-05-29T09:14:51.654Z,37.18
2018-05-29T09:15:51.702Z,37.28
2018-05-29T09:16:51.747Z,37.18
2018-05-29T09:17:51.796Z,37.69
2018-05-29T09:18:51.833Z,37.72
2018-05-29T09:19:51.904Z,37.51
2018-05-29T09:21:06.551Z,37.62
2018-05-29T09:21:51.961Z,37.67
2018-05-29T09:22:51.977Z,37.85
2018-05-29T09:23:51.991Z,38.07
2018-05-29T09:24:52.054Z,37.56
2018-05-29T09:25:52.083Z,37.46
2018-05-29T09:26:52.107Z,37.15
2018-05-29T09:27:52.128Z,37.17
2018-05-29T09:28:52.159Z,37.29
2018-05-29T09:29:52.651Z,37.39
2018-05-29T09:30:52.258Z,37.63
2018-05-29T09:31:52.344Z,37.72
2018-05-29T09:32:52.307Z,38.04
2018-05-29T09:33:52.370Z,38.41
2018-05-29T09:35:52.170Z,38.13
2018-05-29T09:37:07.119Z,37.93
2018-05-29T09:37:52.524Z,37.7
2018-05-29T09:38:52.526Z,37.64
2018-05-29T09:39:52.590Z,37.6
2018-05-29T09:40:52.605Z,38.09
2018-05-29T09:41:52.398Z,38.13
2018-05-29T09:42:52.666Z,37.93
2018-05-29T09:43:52.735Z,38.03
2018-05-29T09:44:52.941Z,38.22
2018-05-29T09:46:52.558Z,38.71
2018-05-29T09:47:52.629Z,38.53
2018-05-29T09:48:52.913Z,38.35
2018-05-29T09:49:52.930Z,38.78
2018-05-29T09:50:52.965Z,38.31
2018-05-29T09:52:07.401Z,37.82
2018-05-29T09:52:53.160Z,37.85
2018-05-29T09:53:53.094Z,37.82
2018-05-29T09:54:53.100Z,37.93
2018-05-29T09:55:53.135Z,37.88
2018-05-29T09:57:07.860Z,37.85
2018-05-29T09:57:53.217Z,37.85
2018-05-29T09:58:53.274Z,37.59
2018-05-29T10:00:07.936Z,37.81
2018-05-29T10:00:53.352Z,37.98
2018-05-29T10:01:53.344Z,37.94
2018-05-29T10:02:53.384Z,37.86
2018-05-29T10:03:53.428Z,37.6
2018-05-29T10:04:53.481Z,37.63
2018-05-29T10:05:53.481Z,37.5
2018-05-29T10:06:53.612Z,37.49
2018-05-29T10:07:53.562Z,37.47
2018-05-29T10:08:53.641Z,37.06
2018-05-29T10:09:53.627Z,37.12
2018-05-29T10:10:53.700Z,37.09
2018-05-29T10:11:53.697Z,37.15
2018-05-29T10:12:53.755Z,37.36
2018-05-29T10:13:53.506Z,37.62
2018-05-29T10:14:53.829Z,37.98
2018-05-29T10:15:53.869Z,38.3
2018-05-29T10:17:08.565Z,37.84
2018-05-29T10:17:53.676Z,37.63
2018-05-29T10:18:53.940Z,37.76
2018-05-29T10:19:54.013Z,37.86
2018-05-29T10:20:53.758Z,38.03
2018-05-29T10:21:53.814Z,37.6
2018-05-29T10:22:54.096Z,37.62
2018-05-29T10:24:08.796Z,37.18
2018-05-29T10:24:54.150Z,37.37
2018-05-29T10:25:54.233Z,37.46
2018-05-29T10:26:54.249Z,37
2018-05-29T10:27:54.001Z,36.56
2018-05-29T10:28:54.056Z,36.34
2018-05-29T10:29:54.336Z,36
2018-05-29T10:31:54.391Z,34.85
2018-05-29T10:32:54.467Z,34.77
2018-05-29T10:34:09.122Z,34.53
2018-05-29T10:34:54.263Z,34.75
2018-05-29T10:35:54.533Z,34.84
2018-05-29T10:36:54.602Z,35.06
2018-05-29T10:37:54.345Z,35
2018-05-29T10:38:54.722Z,35.11
2018-05-29T10:40:09.354Z,35.21
2018-05-29T10:40:54.708Z,35.11
2018-05-29T10:41:54.500Z,34.75
2018-05-29T10:42:54.513Z,34.61
2018-05-29T10:43:54.822Z,34.65
2018-05-29T10:44:54.836Z,34.66
2018-05-29T10:45:54.903Z,34.46
2018-05-29T10:47:54.948Z,34.81
2018-05-29T10:48:54.986Z,34.69
2018-05-29T10:49:55.008Z,34.4
2018-05-29T10:50:55.073Z,34.44
2018-05-29T10:51:55.083Z,34.17
2018-05-29T10:53:54.905Z,34.53
2018-05-29T10:54:55.210Z,34.61
2018-05-29T10:56:09.880Z,34.58
2018-05-29T10:56:55.252Z,34.32
2018-05-29T10:58:09.696Z,33.94
2018-05-29T10:58:55.322Z,33.79
2018-05-29T10:59:55.376Z,33.68
2018-05-29T11:01:10.050Z,34.03
2018-05-29T11:01:55.447Z,34.05
2018-05-29T11:02:55.484Z,33.82
2018-05-29T11:03:55.512Z,33.72
2018-05-29T11:04:55.512Z,33.69
2018-05-29T11:06:10.227Z,33.76
2018-05-29T11:06:55.753Z,33.69
2018-05-29T11:07:55.357Z,33.71
2018-05-29T11:08:55.659Z,33.95
2018-05-29T11:09:55.720Z,33.86
2018-05-29T11:10:55.480Z,33.78
2018-05-29T11:12:55.813Z,33.39
2018-05-29T11:13:55.827Z,33.34
2018-05-29T11:14:55.848Z,33.41
2018-05-29T11:16:55.671Z,33.65
2018-05-29T11:17:55.982Z,33.57
2018-05-29T11:18:55.720Z,33.32
2018-05-29T11:19:56.040Z,33.23
2018-05-29T11:21:10.703Z,32.99
2018-05-29T11:21:55.818Z,32.99
2018-05-29T11:22:56.120Z,33.16
2018-05-29T11:23:56.177Z,33.45
2018-05-29T11:24:56.202Z,33.5
2018-05-29T11:25:56.233Z,33.72
2018-05-29T11:27:10.915Z,33.84
2018-05-29T11:27:56.293Z,33.86
2018-05-29T11:28:56.304Z,33.82
2018-05-29T11:29:56.374Z,33.78
2018-05-29T11:30:56.373Z,33.82
2018-05-29T11:31:56.422Z,33.86
2018-05-29T11:32:56.177Z,33.76
2018-05-29T11:33:56.234Z,33.87
2018-05-29T11:34:56.265Z,33.82
2018-05-29T11:35:56.537Z,33.82
2018-05-29T11:36:56.572Z,33.75
2018-05-29T11:37:56.333Z,33.82
2018-05-29T11:39:11.311Z,33.82
2018-05-29T11:39:56.399Z,33.6
2018-05-29T11:40:56.724Z,33.42
2018-05-29T11:41:56.488Z,33.49
2018-05-29T11:42:56.761Z,33.5
2018-05-29T11:43:56.821Z,33.93
2018-05-29T11:44:56.851Z,33.72
2018-05-29T11:45:56.856Z,33.56
2018-05-29T11:46:56.901Z,33.6
2018-05-29T11:48:11.582Z,33.45
2018-05-29T11:49:56.982Z,33.6
2018-05-29T11:50:57.043Z,33.57
2018-05-29T11:51:57.073Z,33.47
2018-05-29T11:53:11.487Z,33.04
2018-05-29T11:53:57.124Z,32.81
2018-05-29T11:54:56.995Z,32.74
2018-05-29T11:55:57.173Z,32.89
2018-05-29T11:56:56.977Z,32.94
2018-05-29T11:57:57.239Z,33.09
2018-05-29T11:59:11.937Z,33.18
2018-05-29T11:59:57.316Z,33.26
2018-05-29T12:00:57.370Z,33.42
2018-05-29T12:01:57.397Z,33.29
2018-05-29T12:02:57.406Z,33.15
2018-05-29T12:03:57.444Z,33.31
2018-05-29T12:04:57.464Z,33.39
2018-05-29T12:05:57.262Z,33.44
2018-05-29T12:06:57.530Z,33.59
2018-05-29T12:07:57.591Z,33.41
2018-05-29T12:08:57.589Z,33.19
2018-05-29T12:09:57.394Z,33.26
2018-05-29T12:11:57.432Z,33.38
2018-05-29T12:12:57.742Z,33.31
2018-05-29T12:13:57.780Z,33.35
2018-05-29T12:15:12.462Z,33.11
2018-05-29T12:15:57.812Z,33.14
2018-05-29T12:16:58.142Z,33.39
2018-05-29T12:17:57.877Z,33.42
2018-05-29T12:18:57.677Z,33.57
2018-05-29T12:19:57.943Z,33.56
2018-05-29T12:21:58.007Z,33.16
2018-05-29T12:22:57.799Z,33.18
2018-05-29T12:24:12.732Z,33.29
2018-05-29T12:24:57.603Z,33.34
2018-05-29T12:25:58.135Z,33.44
2018-05-29T12:27:58.193Z,32.85
2018-05-29T12:28:58.234Z,33.01
2018-05-29T12:29:58.271Z,33.21
2018-05-29T12:31:12.968Z,33.28
2018-05-29T12:31:58.363Z,33.32
2018-05-29T12:32:58.358Z,33.31
2018-05-29T12:33:58.415Z,33.44
2018-05-29T12:34:58.159Z,33.49
2018-05-29T12:35:58.464Z,33.23
2018-05-29T12:36:58.491Z,33.34
2018-05-29T12:37:58.527Z,33.6
2018-05-29T12:38:58.575Z,33.63
2018-05-29T12:39:58.580Z,33.71
2018-05-29T12:41:13.288Z,33.75
2018-05-29T12:42:13.041Z,33.9
2018-05-29T12:42:58.667Z,34.05
2018-05-29T12:43:58.469Z,33.76
2018-05-29T12:44:58.851Z,34.02
2018-05-29T12:45:58.530Z,33.87
2018-05-29T12:47:58.860Z,33.54
2018-05-29T12:48:58.861Z,33.5
2018-05-29T12:49:58.654Z,33.29
2018-05-29T12:51:13.593Z,33.09
2018-05-29T12:51:58.982Z,33
2018-05-29T12:54:13.679Z,32.93
2018-05-29T12:54:59.074Z,33.04
2018-05-29T12:55:59.106Z,33.29
2018-05-29T12:56:58.885Z,33.49
2018-05-29T12:57:59.143Z,33.32
2018-05-29T12:59:59.203Z,33.07
2018-05-29T13:02:13.953Z,33.21
2018-05-29T13:02:59.307Z,33.22
2018-05-29T13:03:59.362Z,33.22
2018-05-29T13:04:59.369Z,33.14
2018-05-29T13:05:59.271Z,33.11
2018-05-29T13:06:59.169Z,33.16
2018-05-29T13:07:59.477Z,33.19
2018-05-29T13:08:59.489Z,33.16
2018-05-29T13:09:59.559Z,33.18
2018-05-29T13:10:59.323Z,33.32
2018-05-29T13:11:59.590Z,33.35
2018-05-29T13:13:14.295Z,33.56
2018-05-29T13:14:14.339Z,33.5
2018-05-29T13:14:59.462Z,33.63
2018-05-29T13:15:59.716Z,33.61
2018-05-29T13:16:59.795Z,33.59
2018-05-29T13:17:59.529Z,33.38
2018-05-29T13:18:59.816Z,33.35
2018-05-29T13:19:59.873Z,33.38
2018-05-29T13:20:59.899Z,33.15
2018-05-29T13:21:59.645Z,33
2018-05-29T13:22:59.949Z,33.01
2018-05-29T13:23:59.967Z,33.19
2018-05-29T13:25:00.081Z,33.32
2018-05-29T13:26:14.687Z,33.47
2018-05-29T13:27:59.909Z,33.26
2018-05-29T13:29:00.120Z,33.44
2018-05-29T13:30:00.162Z,33.19
2018-05-29T13:30:59.926Z,33.22
2018-05-29T13:31:59.980Z,33.18
2018-05-29T13:32:59.989Z,33.19
2018-05-29T13:34:14.956Z,33.18
2018-05-29T13:35:00.054Z,33.19
2018-05-29T13:35:59.843Z,33.12
2018-05-29T13:38:00.410Z,32.88
2018-05-29T13:39:00.476Z,32.77
2018-05-29T13:40:00.480Z,32.84
2018-05-29T13:41:00.527Z,32.87
2018-05-29T13:42:00.265Z,32.78
2018-05-29T13:43:00.602Z,32.82
2018-05-29T13:44:00.386Z,32.93
2018-05-29T13:45:00.638Z,33.15
2018-05-29T13:46:00.681Z,33.19
2018-05-29T13:47:00.422Z,33.19
2018-05-29T13:48:00.460Z,33.06
2018-05-29T13:49:00.761Z,32.99
2018-05-29T13:50:15.181Z,33.04
2018-05-29T13:51:00.842Z,32.99
2018-05-29T13:52:00.864Z,32.78
2018-05-29T13:53:00.905Z,32.93